Time;durP1;ratioP1;P1;durP2;ratioP2;P2;SDS_P1;SDS_P2;PMS_P1;PMS_P2;Temp;Humidity;BMP_temperature;BMP_pressure;BME280_temperature;BME280_humidity;BME280_pressure;Samples;Min_cycle;Max_cycle;Signal;HPM_P1;HPM_P2
2021/04/07 00:00:51;;;;;;;12.97;2.10;;;;;;;;;;4987145;28;20219;-67
2021/04/07 00:03:17;;;;;;;21.73;3.40;;;;;;;;;;4977322;28;20207;-68
2021/04/07 00:05:44;;;;;;;12.97;1.60;;;;;;;;;;4986102;28;20195;-68
2021/04/07 00:08:10;;;;;;;10.57;1.53;;;;;;;;;;4977169;28;20218;-68
2021/04/07 00:10:39;;;;;;;17.43;1.40;;;;;;;;;;4987653;28;20651;-68
2021/04/07 00:13:11;;;;;;;12.80;1.33;;;;;;;;;;4978178;28;20206;-68
2021/04/07 00:15:37;;;;;;;13.73;1.70;;;;;;;;;;4987863;28;20179;-68
2021/04/07 00:18:03;;;;;;;11.00;1.40;;;;;;;;;;4977073;28;20190;-68
2021/04/07 00:20:30;;;;;;;15.10;1.97;;;;;;;;;;4990118;28;20195;-68
2021/04/07 00:22:56;;;;;;;11.30;1.90;;;;;;;;;;4977115;28;20250;-68
2021/04/07 00:25:23;;;;;;;7.87;1.53;;;;;;;;;;4986243;28;20182;-68
2021/04/07 00:28:00;;;;;;;12.97;1.47;;;;;;;;;;4977704;28;20545;-68
2021/04/07 00:30:28;;;;;;;14.70;1.70;;;;;;;;;;4983379;28;20676;-68
2021/04/07 00:32:54;;;;;;;8.63;1.50;;;;;;;;;;4980687;28;20260;-68
2021/04/07 00:35:20;;;;;;;11.17;1.70;;;;;;;;;;4984847;28;20201;-68
2021/04/07 00:37:46;;;;;;;8.00;1.47;;;;;;;;;;4985415;28;20190;-68
2021/04/07 00:40:12;;;;;;;13.17;1.60;;;;;;;;;;4976166;28;20238;-68
2021/04/07 00:42:37;;;;;;;10.33;1.33;;;;;;;;;;4984923;28;20229;-68
2021/04/07 00:45:05;;;;;;;10.57;2.20;;;;;;;;;;4978017;28;20657;-68
2021/04/07 00:47:31;;;;;;;9.30;1.83;;;;;;;;;;4985255;28;20286;-68
2021/04/07 00:49:56;;;;;;;7.03;1.30;;;;;;;;;;4975125;28;20665;-68
2021/04/07 00:52:21;;;;;;;9.73;1.40;;;;;;;;;;4983199;28;20206;-68
2021/04/07 00:54:47;;;;;;;11.90;1.53;;;;;;;;;;4976812;28;21305;-69
2021/04/07 00:57:12;;;;;;;11.53;1.73;;;;;;;;;;4983109;28;20187;-67
2021/04/07 00:59:38;;;;;;;15.27;1.60;;;;;;;;;;4977385;28;20635;-68
2021/04/07 01:02:03;;;;;;;9.40;1.10;;;;;;;;;;4985132;28;20187;-68
2021/04/07 01:04:29;;;;;;;9.17;1.37;;;;;;;;;;4982150;28;20202;-68
2021/04/07 01:06:56;;;;;;;9.23;1.17;;;;;;;;;;4976217;28;20288;-68
2021/04/07 01:09:21;;;;;;;9.57;1.40;;;;;;;;;;4987285;28;20233;-68
2021/04/07 01:11:46;;;;;;;7.43;1.03;;;;;;;;;;4979927;28;20187;-68
2021/04/07 01:14:12;;;;;;;8.17;1.17;;;;;;;;;;4983975;28;20187;-68
2021/04/07 01:16:37;;;;;;;6.07;1.57;;;;;;;;;;4976198;28;20907;-68
2021/04/07 01:19:06;;;;;;;12.50;2.10;;;;;;;;;;4984802;28;20766;-68
2021/04/07 01:21:31;;;;;;;3.50;1.00;;;;;;;;;;4977836;28;20294;-69
2021/04/07 01:23:57;;;;;;;9.17;1.13;;;;;;;;;;4989078;28;20277;-68
2021/04/07 01:26:22;;;;;;;12.27;1.50;;;;;;;;;;4979959;28;20188;-68
2021/04/07 01:28:47;;;;;;;9.07;1.20;;;;;;;;;;4989782;28;20615;-68
2021/04/07 01:31:13;;;;;;;8.37;1.43;;;;;;;;;;4981272;28;20183;-67
2021/04/07 01:33:38;;;;;;;6.77;0.90;;;;;;;;;;4987798;28;20193;-68
2021/04/07 01:36:04;;;;;;;6.30;0.90;;;;;;;;;;4989430;28;20249;-67
2021/04/07 01:38:29;;;;;;;9.00;1.20;;;;;;;;;;4977581;28;20190;-67
2021/04/07 01:40:55;;;;;;;8.30;1.07;;;;;;;;;;4989678;28;20284;-68
2021/04/07 01:43:23;;;;;;;9.07;1.17;;;;;;;;;;4978745;28;20832;-68
2021/04/07 01:45:49;;;;;;;7.60;1.27;;;;;;;;;;4990350;28;20580;-68
2021/04/07 01:48:16;;;;;;;8.87;0.90;;;;;;;;;;4977900;28;20395;-68
2021/04/07 01:50:44;;;;;;;6.97;0.90;;;;;;;;;;4989749;28;20184;-68
2021/04/07 01:53:11;;;;;;;3.10;0.73;;;;;;;;;;4978800;28;20191;-69
2021/04/07 01:55:36;;;;;;;5.17;0.53;;;;;;;;;;4990630;28;20307;-69
2021/04/07 01:58:03;;;;;;;3.83;0.80;;;;;;;;;;4976940;28;20619;-68
2021/04/07 02:00:28;;;;;;;5.07;0.70;;;;;;;;;;4989953;28;20226;-69
2021/04/07 02:02:54;;;;;;;3.27;0.53;;;;;;;;;;4979068;28;20251;-68
2021/04/07 02:05:20;;;;;;;4.27;0.80;;;;;;;;;;4989021;28;20267;-68
2021/04/07 02:07:45;;;;;;;4.53;0.93;;;;;;;;;;4987879;28;20254;-68
2021/04/07 02:10:11;;;;;;;4.50;0.80;;;;;;;;;;4980225;28;20191;-68
2021/04/07 02:12:37;;;;;;;5.83;1.07;;;;;;;;;;4987535;28;20202;-68
2021/04/07 02:15:15;;;;;;;5.40;0.97;;;;;;;;;;4977745;28;20191;-68
2021/04/07 02:17:41;;;;;;;3.43;0.90;;;;;;;;;;4986330;28;20187;-68
2021/04/07 02:20:08;;;;;;;7.20;1.00;;;;;;;;;;4978168;28;20207;-68
2021/04/07 02:22:34;;;;;;;11.63;2.13;;;;;;;;;;4984885;28;20195;-68
2021/04/07 02:24:59;;;;;;;6.90;0.97;;;;;;;;;;4977962;28;20194;-68
2021/04/07 02:27:25;;;;;;;4.87;1.10;;;;;;;;;;4984320;28;20187;-67
2021/04/07 02:29:53;;;;;;;7.40;1.30;;;;;;;;;;4979880;28;20202;-68
2021/04/07 02:32:19;;;;;;;6.33;1.20;;;;;;;;;;4986063;28;20754;-69
2021/04/07 02:34:45;;;;;;;5.53;1.40;;;;;;;;;;4976961;28;20195;-69
2021/04/07 02:37:11;;;;;;;9.00;1.40;;;;;;;;;;4985698;28;20187;-68
2021/04/07 02:39:37;;;;;;;10.70;1.13;;;;;;;;;;4985477;28;20235;-68
2021/04/07 02:42:03;;;;;;;8.17;1.17;;;;;;;;;;4982335;28;20191;-68
2021/04/07 02:44:28;;;;;;;12.20;1.33;;;;;;;;;;4986983;28;20285;-68
2021/04/07 02:46:53;;;;;;;10.00;1.37;;;;;;;;;;4980407;28;20221;-67
2021/04/07 02:49:19;;;;;;;8.03;1.50;;;;;;;;;;4986569;28;20183;-67
2021/04/07 02:51:44;;;;;;;8.13;1.00;;;;;;;;;;4976628;28;20187;-69
2021/04/07 02:54:09;;;;;;;6.90;1.10;;;;;;;;;;4986162;28;20211;-68
2021/04/07 02:56:35;;;;;;;10.30;1.60;;;;;;;;;;4976723;28;20525;-68
2021/04/07 02:59:00;;;;;;;7.37;1.20;;;;;;;;;;4985398;28;20627;-69
2021/04/07 03:01:26;;;;;;;9.87;1.30;;;;;;;;;;4973918;28;20713;-68
2021/04/07 03:03:51;;;;;;;9.77;1.40;;;;;;;;;;4984595;28;20202;-68
2021/04/07 03:06:17;;;;;;;8.57;1.73;;;;;;;;;;4976105;28;20187;-68
2021/04/07 03:08:42;;;;;;;14.50;1.93;;;;;;;;;;4983581;28;20555;-69
2021/04/07 03:11:07;;;;;;;6.87;1.60;;;;;;;;;;4985561;28;20527;-69
2021/04/07 03:13:33;;;;;;;12.20;1.83;;;;;;;;;;4975415;28;20198;-68
2021/04/07 03:15:59;;;;;;;8.37;1.37;;;;;;;;;;4986401;28;20272;-68
2021/04/07 03:18:24;;;;;;;5.93;1.40;;;;;;;;;;4977468;28;20322;-67
2021/04/07 03:20:50;;;;;;;6.50;1.37;;;;;;;;;;4985794;28;20211;-69
2021/04/07 03:23:15;;;;;;;5.97;1.13;;;;;;;;;;4976162;28;20188;-69
2021/04/07 03:25:40;;;;;;;9.37;1.80;;;;;;;;;;4989551;28;20632;-67
2021/04/07 03:28:06;;;;;;;8.33;1.60;;;;;;;;;;4974865;28;20657;-67
2021/04/07 03:30:52;;;;;;;5.83;1.50;;;;;;;;;;4984384;28;20516;-67
2021/04/07 03:33:26;;;;;;;8.33;1.70;;;;;;;;;;4972992;28;20203;-68
2021/04/07 03:35:52;;;;;;;11.73;1.97;;;;;;;;;;4986503;28;20191;-68
2021/04/07 03:38:19;;;;;;;8.23;1.70;;;;;;;;;;4977008;28;20187;-68
2021/04/07 03:40:45;;;;;;;7.43;1.20;;;;;;;;;;4985942;28;20234;-68
2021/04/07 03:43:12;;;;;;;3.93;1.17;;;;;;;;;;4976691;28;20466;-67
2021/04/07 03:45:42;;;;;;;7.97;1.60;;;;;;;;;;4985148;28;20191;-67
2021/04/07 03:48:11;;;;;;;4.67;1.40;;;;;;;;;;4982442;28;20194;-67
2021/04/07 03:50:37;;;;;;;8.87;1.83;;;;;;;;;;4975503;28;20195;-68
2021/04/07 03:53:03;;;;;;;8.67;1.43;;;;;;;;;;4986296;28;20182;-68
2021/04/07 03:55:28;;;;;;;5.90;1.20;;;;;;;;;;4977688;28;20206;-68
2021/04/07 03:57:53;;;;;;;5.13;1.33;;;;;;;;;;4985277;28;20585;-68
2021/04/07 04:00:19;;;;;;;3.97;1.57;;;;;;;;;;4975991;28;20239;-68
2021/04/07 04:02:44;;;;;;;10.77;1.47;;;;;;;;;;4986569;28;20316;-68
2021/04/07 04:05:10;;;;;;;4.77;1.37;;;;;;;;;;4978077;28;20217;-68
2021/04/07 04:07:35;;;;;;;9.00;1.90;;;;;;;;;;4985199;28;20790;-68
2021/04/07 04:10:01;;;;;;;5.07;1.47;;;;;;;;;;4977139;28;20203;-68
2021/04/07 04:12:26;;;;;;;7.63;1.50;;;;;;;;;;4986091;28;20196;-68
2021/04/07 04:14:51;;;;;;;5.90;1.30;;;;;;;;;;4978630;28;20191;-69
2021/04/07 04:17:17;;;;;;;4.03;1.60;;;;;;;;;;4983466;28;20198;-68
2021/04/07 04:19:42;;;;;;;5.33;1.50;;;;;;;;;;4987625;28;20203;-69
2021/04/07 04:22:08;;;;;;;4.10;1.40;;;;;;;;;;4976389;28;20224;-66
2021/04/07 04:24:33;;;;;;;7.53;1.27;;;;;;;;;;4986619;28;20557;-67
2021/04/07 04:26:58;;;;;;;5.30;1.67;;;;;;;;;;4977289;28;20195;-67
2021/04/07 04:29:24;;;;;;;5.63;1.63;;;;;;;;;;4985456;28;20205;-67
2021/04/07 04:31:49;;;;;;;4.60;1.80;;;;;;;;;;4977612;28;20199;-68
2021/04/07 04:34:14;;;;;;;6.37;2.07;;;;;;;;;;4987206;28;20647;-68
2021/04/07 04:36:40;;;;;;;6.57;2.10;;;;;;;;;;4976727;28;20634;-68
2021/04/07 04:39:05;;;;;;;4.60;1.93;;;;;;;;;;4985761;28;20250;-67
2021/04/07 04:41:31;;;;;;;5.43;2.17;;;;;;;;;;4975307;28;20210;-68
2021/04/07 04:43:56;;;;;;;3.67;2.10;;;;;;;;;;4985313;28;20194;-67
2021/04/07 04:46:22;;;;;;;6.27;2.33;;;;;;;;;;4984312;28;20182;-68
2021/04/07 04:48:47;;;;;;;7.57;2.70;;;;;;;;;;4979552;28;20303;-68
2021/04/07 04:51:12;;;;;;;9.47;3.23;;;;;;;;;;4982544;28;20218;-68
2021/04/07 04:53:38;;;;;;;7.53;2.83;;;;;;;;;;4973726;28;20290;-68
2021/04/07 04:56:03;;;;;;;5.90;3.07;;;;;;;;;;4985588;28;20690;-68
2021/04/07 04:58:31;;;;;;;5.43;3.17;;;;;;;;;;4978126;28;20199;-69
2021/04/07 05:00:56;;;;;;;10.20;3.90;;;;;;;;;;4987932;28;20847;-69
2021/04/07 05:03:22;;;;;;;10.37;4.17;;;;;;;;;;4979698;28;20211;-69
2021/04/07 05:05:47;;;;;;;9.30;3.77;;;;;;;;;;4988789;28;20294;-69
2021/04/07 05:08:12;;;;;;;7.50;4.27;;;;;;;;;;4976979;28;20198;-69
2021/04/07 05:10:38;;;;;;;8.43;4.50;;;;;;;;;;4993414;28;20614;-68
2021/04/07 05:13:03;;;;;;;11.07;5.00;;;;;;;;;;4977475;28;20229;-68
2021/04/07 05:15:28;;;;;;;6.97;4.50;;;;;;;;;;4987251;28;20289;-68
2021/04/07 05:17:53;;;;;;;7.43;4.70;;;;;;;;;;4989131;28;20187;-68
2021/04/07 05:20:19;;;;;;;10.30;5.13;;;;;;;;;;4978218;28;20262;-68
2021/04/07 05:22:44;;;;;;;9.20;5.07;;;;;;;;;;4987420;28;20666;-68
2021/04/07 05:25:10;;;;;;;8.47;4.70;;;;;;;;;;4977931;28;20666;-69
2021/04/07 05:27:35;;;;;;;10.27;5.50;;;;;;;;;;4988562;28;20190;-69
2021/04/07 05:30:01;;;;;;;8.60;5.27;;;;;;;;;;4978649;28;20175;-69
2021/04/07 05:32:26;;;;;;;13.00;5.33;;;;;;;;;;4988609;28;20190;-68
2021/04/07 05:34:51;;;;;;;10.00;5.53;;;;;;;;;;4977487;28;20191;-68
2021/04/07 05:37:17;;;;;;;10.17;5.20;;;;;;;;;;4984695;28;20199;-69
2021/04/07 05:39:42;;;;;;;10.20;4.90;;;;;;;;;;4979318;28;20262;-69
2021/04/07 05:42:07;;;;;;;7.37;4.70;;;;;;;;;;4986588;28;20721;-68
2021/04/07 05:44:33;;;;;;;7.73;4.50;;;;;;;;;;4989622;28;20254;-69
2021/04/07 05:46:58;;;;;;;10.10;5.33;;;;;;;;;;4977985;28;20769;-68
2021/04/07 05:49:27;;;;;;;7.73;5.00;;;;;;;;;;4989882;28;20199;-68
2021/04/07 05:51:52;;;;;;;9.47;4.50;;;;;;;;;;4976337;28;20187;-68
2021/04/07 05:54:18;;;;;;;7.17;4.40;;;;;;;;;;4988183;28;20531;-68
2021/04/07 05:56:43;;;;;;;6.20;3.50;;;;;;;;;;4977636;28;20200;-68
2021/04/07 05:59:09;;;;;;;7.53;3.77;;;;;;;;;;4987234;28;20213;-68
2021/04/07 06:01:34;;;;;;;6.30;3.40;;;;;;;;;;4977413;28;20219;-68
2021/04/07 06:04:00;;;;;;;5.10;3.30;;;;;;;;;;4985250;28;20207;-68
2021/04/07 06:06:25;;;;;;;4.87;3.20;;;;;;;;;;4976826;28;20677;-68
2021/04/07 06:08:50;;;;;;;5.33;3.00;;;;;;;;;;4987980;28;20183;-68
2021/04/07 06:11:17;;;;;;;4.80;3.00;;;;;;;;;;4975009;28;20554;-68
2021/04/07 06:13:43;;;;;;;6.60;2.73;;;;;;;;;;4987307;28;20263;-68
2021/04/07 06:16:08;;;;;;;5.37;2.87;;;;;;;;;;4986576;28;20294;-68
2021/04/07 06:18:34;;;;;;;3.57;2.83;;;;;;;;;;4975030;28;20199;-68
2021/04/07 06:20:59;;;;;;;5.47;2.83;;;;;;;;;;4984538;28;20298;-69
2021/04/07 06:23:24;;;;;;;3.33;2.50;;;;;;;;;;4978649;28;20184;-68
2021/04/07 06:25:50;;;;;;;7.17;3.17;;;;;;;;;;4985590;28;20637;-69
2021/04/07 06:28:16;;;;;;;6.07;3.17;;;;;;;;;;4976631;28;20226;-69
2021/04/07 06:30:48;;;;;;;8.17;3.17;;;;;;;;;;4984180;28;20190;-69
2021/04/07 06:33:20;;;;;;;4.43;2.50;;;;;;;;;;4976798;28;20496;-69
2021/04/07 06:35:48;;;;;;;4.07;2.67;;;;;;;;;;4984874;28;20290;-68
2021/04/07 06:38:14;;;;;;;4.30;2.87;;;;;;;;;;4979340;28;20210;-69
2021/04/07 06:40:40;;;;;;;4.10;2.10;;;;;;;;;;4984926;28;20235;-68
2021/04/07 06:43:05;;;;;;;5.47;2.57;;;;;;;;;;4979026;28;20206;-68
2021/04/07 06:45:33;;;;;;;3.13;2.20;;;;;;;;;;4986485;28;20191;-68
2021/04/07 06:47:59;;;;;;;3.97;2.40;;;;;;;;;;4987252;28;20727;-68
2021/04/07 06:50:25;;;;;;;4.83;2.17;;;;;;;;;;4977770;28;20219;-69
2021/04/07 06:52:55;;;;;;;4.67;2.37;;;;;;;;;;4987470;28;20217;-69
2021/04/07 06:55:21;;;;;;;3.07;2.23;;;;;;;;;;4978668;28;20189;-69
2021/04/07 06:57:46;;;;;;;4.97;2.50;;;;;;;;;;4990685;28;20422;-71
2021/04/07 07:00:13;;;;;;;4.47;2.37;;;;;;;;;;4975820;28;20207;-71
2021/04/07 07:02:39;;;;;;;5.53;2.40;;;;;;;;;;4987729;28;20203;-72
2021/04/07 07:05:06;;;;;;;4.23;2.60;;;;;;;;;;4978280;28;20289;-72
2021/04/07 07:07:31;;;;;;;4.47;2.57;;;;;;;;;;4987488;28;20265;-73
2021/04/07 07:09:57;;;;;;;4.57;2.57;;;;;;;;;;4978617;28;20262;-72
2021/04/07 07:12:23;;;;;;;4.93;2.70;;;;;;;;;;4987915;28;20175;-73
2021/04/07 07:14:49;;;;;;;6.10;2.83;;;;;;;;;;4975769;28;20203;-72
2021/04/07 07:17:26;;;;;;;6.27;2.80;;;;;;;;;;4995641;28;20172;-72
2021/04/07 07:19:51;;;;;;;5.57;2.83;;;;;;;;;;4979365;28;21483;-72
2021/04/07 07:22:24;;;;;;;8.27;2.90;;;;;;;;;;4985194;28;20253;-73
2021/04/07 07:24:55;;;;;;;4.70;2.57;;;;;;;;;;4987384;28;20339;-72
2021/04/07 07:27:33;;;;;;;10.13;2.40;;;;;;;;;;4976279;28;20207;-70
2021/04/07 07:30:00;;;;;;;4.87;2.87;;;;;;;;;;4986916;28;20524;-71
2021/04/07 07:32:36;;;;;;;5.30;2.80;;;;;;;;;;4993340;28;20223;-70
2021/04/07 07:35:28;;;;;;;6.60;2.80;;;;;;;;;;4989157;28;20909;-70
2021/04/07 07:37:59;;;;;;;6.97;3.10;;;;;;;;;;4976155;28;20216;-70
2021/04/07 07:40:25;;;;;;;8.00;2.50;;;;;;;;;;4986812;28;20231;-71
2021/04/07 07:42:51;;;;;;;3.90;2.40;;;;;;;;;;4978240;28;21177;-70
2021/04/07 07:45:25;;;;;;;4.97;2.67;;;;;;;;;;4986176;28;20195;-70
2021/04/07 07:48:13;;;;;;;8.97;3.43;;;;;;;;;;4977613;28;20202;-70
2021/04/07 07:50:41;;;;;;;6.40;2.50;;;;;;;;;;4987191;28;20186;-70
2021/04/07 07:53:15;;;;;;;8.20;3.40;;;;;;;;;;4975719;28;20194;-70
2021/04/07 07:55:41;;;;;;;7.37;2.87;;;;;;;;;;4985784;28;20179;-70
2021/04/07 07:58:06;;;;;;;6.20;2.67;;;;;;;;;;4975594;28;20553;-70
2021/04/07 08:00:32;;;;;;;9.23;3.10;;;;;;;;;;4985704;28;20226;-70
2021/04/07 08:03:08;;;;;;;8.53;2.63;;;;;;;;;;4983019;28;20207;-70
2021/04/07 08:05:34;;;;;;;13.37;3.13;;;;;;;;;;4984636;28;20189;-69
2021/04/07 08:08:00;;;;;;;10.20;2.80;;;;;;;;;;4977226;28;20211;-70
2021/04/07 08:10:25;;;;;;;9.63;2.90;;;;;;;;;;4987422;28;20620;-70
2021/04/07 08:12:51;;;;;;;10.00;2.93;;;;;;;;;;4977067;28;22553;-70
2021/04/07 08:15:16;;;;;;;16.47;2.73;;;;;;;;;;4985116;28;20295;-70
2021/04/07 08:17:42;;;;;;;11.23;2.67;;;;;;;;;;4986638;28;20191;-70
2021/04/07 08:20:08;;;;;;;9.10;2.60;;;;;;;;;;4976594;28;20221;-70
2021/04/07 08:22:36;;;;;;;10.37;2.57;;;;;;;;;;4985413;28;20191;-70
2021/04/07 08:25:06;;;;;;;14.23;2.43;;;;;;;;;;4975342;28;20230;-69
2021/04/07 08:27:35;;;;;;;9.40;1.90;;;;;;;;;;4987012;28;20190;-70
2021/04/07 08:30:02;;;;;;;10.00;2.30;;;;;;;;;;4976185;28;20191;-70
2021/04/07 08:32:28;;;;;;;11.83;2.27;;;;;;;;;;4986170;28;20672;-70
2021/04/07 08:34:54;;;;;;;12.63;1.93;;;;;;;;;;4979441;28;21323;-70
2021/04/07 08:37:29;;;;;;;11.03;2.33;;;;;;;;;;4985607;28;20188;-69
2021/04/07 08:39:55;;;;;;;9.63;1.97;;;;;;;;;;4975403;28;20223;-69
2021/04/07 08:42:22;;;;;;;18.53;2.60;;;;;;;;;;4986675;28;20220;-69
2021/04/07 08:44:49;;;;;;;10.87;2.73;;;;;;;;;;4976585;28;20206;-69
2021/04/07 08:47:34;;;;;;;14.77;2.40;;;;;;;;;;4983584;28;20187;-69
2021/04/07 08:50:07;;;;;;;10.27;2.10;;;;;;;;;;4976656;28;20551;-70
2021/04/07 08:52:47;;;;;;;9.17;1.60;;;;;;;;;;4986138;28;20662;-70
2021/04/07 08:55:24;;;;;;;7.47;1.47;;;;;;;;;;4991105;28;20187;-68
2021/04/07 08:58:06;;;;;;;10.17;1.50;;;;;;;;;;4985389;28;20281;-68
2021/04/07 09:00:35;;;;;;;14.63;1.93;;;;;;;;;;4976924;28;20621;-68
2021/04/07 09:03:14;;;;;;;12.27;1.93;;;;;;;;;;4984043;28;20253;-69
2021/04/07 09:05:43;;;;;;;7.27;1.50;;;;;;;;;;4975758;28;20186;-68
2021/04/07 09:08:09;;;;;;;10.63;1.40;;;;;;;;;;4983040;28;20206;-69
2021/04/07 09:10:41;;;;;;;3.83;1.00;;;;;;;;;;4983998;28;20179;-69
2021/04/07 09:13:12;;;;;;;5.90;1.20;;;;;;;;;;4981557;28;20532;-70
2021/04/07 09:15:55;;;;;;;9.27;1.07;;;;;;;;;;4981487;28;20196;-69
2021/04/07 09:18:38;;;;;;;8.63;1.17;;;;;;;;;;4981563;28;20590;-69
2021/04/07 09:21:20;;;;;;;11.23;1.10;;;;;;;;;;4983950;28;20960;-68
2021/04/07 09:23:51;;;;;;;12.00;1.57;;;;;;;;;;4983754;28;20488;-69
2021/04/07 09:26:19;;;;;;;4.97;0.87;;;;;;;;;;4983682;28;20190;-69
2021/04/07 09:28:50;;;;;;;1.33;0.50;;;;;;;;;;4974908;28;20596;-69
2021/04/07 09:31:35;;;;;;;3.97;0.50;;;;;;;;;;4984400;28;20186;-70
2021/04/07 09:34:01;;;;;;;4.83;0.40;;;;;;;;;;4975127;28;20209;-70
2021/04/07 09:36:35;;;;;;;3.90;1.33;;;;;;;;;;4984750;28;20698;-70
2021/04/07 09:39:07;;;;;;;7.37;0.90;;;;;;;;;;4975128;28;20699;-71
2021/04/07 09:41:35;;;;;;;7.00;1.10;;;;;;;;;;4982944;28;20216;-70
2021/04/07 09:44:03;;;;;;;10.00;1.47;;;;;;;;;;4974851;28;20191;-70
2021/04/07 09:46:28;;;;;;;11.70;2.37;;;;;;;;;;4986607;28;20214;-69
2021/04/07 09:48:56;;;;;;;16.17;2.70;;;;;;;;;;4978462;28;20578;-69
2021/04/07 09:51:26;;;;;;;10.57;2.70;;;;;;;;;;4988420;28;20183;-70
2021/04/07 09:53:52;;;;;;;14.87;2.37;;;;;;;;;;4976891;28;20211;-69
2021/04/07 09:56:18;;;;;;;12.43;2.83;;;;;;;;;;4989746;28;20192;-69
2021/04/07 09:58:48;;;;;;;18.67;2.77;;;;;;;;;;4977248;28;20191;-70
2021/04/07 10:01:15;;;;;;;18.00;2.60;;;;;;;;;;4985905;28;20560;-69
2021/04/07 10:03:52;;;;;;;17.10;2.50;;;;;;;;;;4974573;28;20706;-69
2021/04/07 10:06:25;;;;;;;15.60;3.10;;;;;;;;;;4988146;28;20396;-69
2021/04/07 10:09:04;;;;;;;18.33;2.50;;;;;;;;;;4976600;28;20218;-69
2021/04/07 10:11:31;;;;;;;23.17;3.40;;;;;;;;;;4988149;28;20183;-69
2021/04/07 10:14:01;;;;;;;19.40;2.97;;;;;;;;;;4983320;28;20179;-69
2021/04/07 10:16:40;;;;;;;22.02;2.97;;;;;;;;;;4983188;28;20195;-70
2021/04/07 10:19:10;;;;;;;16.67;2.30;;;;;;;;;;4984737;28;20187;-70
2021/04/07 10:21:37;;;;;;;13.03;2.30;;;;;;;;;;4978242;28;20218;-68
2021/04/07 10:24:04;;;;;;;13.13;2.10;;;;;;;;;;4986818;28;20191;-70
2021/04/07 10:26:29;;;;;;;17.93;2.97;;;;;;;;;;4977282;28;20188;-69
2021/04/07 10:28:56;;;;;;;18.37;2.83;;;;;;;;;;4985337;28;20187;-69
2021/04/07 10:31:22;;;;;;;13.43;2.97;;;;;;;;;;4976583;28;20294;-69
2021/04/07 10:33:47;;;;;;;16.43;2.63;;;;;;;;;;4984978;28;20203;-70
2021/04/07 10:36:12;;;;;;;21.33;2.97;;;;;;;;;;4978432;28;20309;-70
2021/04/07 10:38:38;;;;;;;20.53;3.30;;;;;;;;;;4984241;28;20195;-70
2021/04/07 10:41:05;;;;;;;14.67;2.60;;;;;;;;;;4978692;28;20679;-70
2021/04/07 10:43:39;;;;;;;13.47;2.30;;;;;;;;;;4986987;28;20726;-69
2021/04/07 10:46:09;;;;;;;19.47;2.50;;;;;;;;;;4977740;28;20194;-70
2021/04/07 10:48:36;;;;;;;18.90;2.60;;;;;;;;;;4986692;28;20202;-69
2021/04/07 10:51:02;;;;;;;16.13;2.67;;;;;;;;;;4978532;28;20183;-69
2021/04/07 10:53:29;;;;;;;12.10;2.43;;;;;;;;;;4985076;28;20546;-69
2021/04/07 10:55:54;;;;;;;13.93;2.63;;;;;;;;;;4987752;28;20226;-69
2021/04/07 10:58:28;;;;;;;16.83;3.07;;;;;;;;;;4976212;28;21024;-69
2021/04/07 11:00:53;;;;;;;19.27;2.50;;;;;;;;;;4984493;28;20211;-68
2021/04/07 11:03:30;;;;;;;17.60;2.73;;;;;;;;;;4976473;28;20246;-69
2021/04/07 11:05:55;;;;;;;15.20;2.40;;;;;;;;;;4988271;28;20855;-68
2021/04/07 11:08:20;;;;;;;8.13;1.50;;;;;;;;;;4974348;28;20206;-69
2021/04/07 11:10:49;;;;;;;7.80;1.27;;;;;;;;;;4986143;28;20253;-69
2021/04/07 11:13:19;;;;;;;7.87;1.27;;;;;;;;;;4975623;28;22954;-69
2021/04/07 11:15:44;;;;;;;7.43;1.53;;;;;;;;;;4985862;28;20524;-70
2021/04/07 11:18:10;;;;;;;7.60;1.40;;;;;;;;;;4975247;28;20202;-70
2021/04/07 11:20:37;;;;;;;12.83;1.63;;;;;;;;;;4983833;28;20210;-72
2021/04/07 11:23:03;;;;;;;10.80;1.60;;;;;;;;;;4975153;28;20265;-72
2021/04/07 11:25:28;;;;;;;12.53;1.60;;;;;;;;;;4985066;28;20182;-70
2021/04/07 11:27:57;;;;;;;12.50;1.70;;;;;;;;;;4977233;28;20275;-70
2021/04/07 11:30:24;;;;;;;11.33;1.53;;;;;;;;;;4986468;28;20175;-72
2021/04/07 11:33:01;;;;;;;19.70;2.83;;;;;;;;;;4983385;28;20187;-70
2021/04/07 11:37:55;;;;;;;11.30;2.00;;;;;;;;;;4987056;28;21120;-70
2021/04/07 11:45:29;;;;;;;15.53;2.80;;;;;;;;;;4979911;28;20206;-69
2021/04/07 11:47:55;;;;;;;20.93;2.90;;;;;;;;;;4984078;28;20196;-69
2021/04/07 11:50:20;;;;;;;16.53;2.83;;;;;;;;;;4978480;28;20266;-70
2021/04/07 11:52:46;;;;;;;14.63;2.90;;;;;;;;;;4985246;28;20219;-70
2021/04/07 11:55:12;;;;;;;14.00;2.33;;;;;;;;;;4977129;28;20200;-70
2021/04/07 11:57:37;;;;;;;8.97;1.83;;;;;;;;;;4984131;28;20655;-70
2021/04/07 12:00:05;;;;;;;11.50;1.80;;;;;;;;;;4975842;28;20262;-70
2021/04/07 12:02:33;;;;;;;12.30;2.00;;;;;;;;;;4984104;28;20218;-71
2021/04/07 12:04:58;;;;;;;9.90;1.70;;;;;;;;;;4975097;28;20211;-70
2021/04/07 12:07:24;;;;;;;10.70;1.97;;;;;;;;;;4981576;28;20617;-70
2021/04/07 12:09:49;;;;;;;16.33;2.20;;;;;;;;;;4988513;28;20215;-70
2021/04/07 12:12:14;;;;;;;14.27;2.40;;;;;;;;;;4284435;28;10000839;-70
2021/04/07 12:14:40;;;;;;;16.13;2.17;;;;;;;;;;4979798;28;20262;-74
2021/04/07 12:17:05;;;;;;;15.40;2.23;;;;;;;;;;4972128;28;20187;-71
2021/04/07 12:19:31;;;;;;;10.90;1.83;;;;;;;;;;4982073;28;20722;-71
2021/04/07 12:21:57;;;;;;;10.17;1.80;;;;;;;;;;4971939;28;20576;-71
2021/04/07 12:24:22;;;;;;;16.17;2.83;;;;;;;;;;4992493;28;20448;-70
2021/04/07 12:26:48;;;;;;;12.47;1.60;;;;;;;;;;4974010;28;20188;-70
2021/04/07 12:29:13;;;;;;;13.37;1.80;;;;;;;;;;4983998;28;20191;-70
2021/04/07 12:31:38;;;;;;;9.10;1.67;;;;;;;;;;4978164;28;20262;-69
2021/04/07 12:34:04;;;;;;;15.90;2.93;;;;;;;;;;4981574;28;20569;-70
2021/04/07 12:36:31;;;;;;;13.97;2.40;;;;;;;;;;4971252;28;20201;-70
2021/04/07 12:38:59;;;;;;;10.67;1.73;;;;;;;;;;4981741;28;20284;-70
2021/04/07 12:41:31;;;;;;;15.97;1.83;;;;;;;;;;4981706;28;20293;-70
2021/04/07 12:43:57;;;;;;;11.83;1.77;;;;;;;;;;4969456;28;20186;-70
2021/04/07 12:46:23;;;;;;;13.23;1.80;;;;;;;;;;4977433;28;20190;-70
2021/04/07 12:48:49;;;;;;;15.07;1.93;;;;;;;;;;4969845;28;20863;-69
2021/04/07 12:51:16;;;;;;;8.17;1.60;;;;;;;;;;4979102;28;20184;-70
2021/04/07 12:53:41;;;;;;;13.13;2.10;;;;;;;;;;4971877;28;20206;-69
2021/04/07 12:56:08;;;;;;;9.83;1.57;;;;;;;;;;4978994;28;20194;-69
2021/04/07 12:58:33;;;;;;;9.33;1.90;;;;;;;;;;4966427;28;20191;-69
2021/04/07 13:00:58;;;;;;;13.77;2.13;;;;;;;;;;4980344;28;20473;-69
2021/04/07 13:03:24;;;;;;;11.83;2.60;;;;;;;;;;4974200;28;20211;-69
2021/04/07 13:05:49;;;;;;;16.17;2.17;;;;;;;;;;4979564;28;20778;-70
2021/04/07 13:08:14;;;;;;;13.37;2.53;;;;;;;;;;4968069;28;20194;-69
2021/04/07 13:10:40;;;;;;;13.77;1.83;;;;;;;;;;4981620;28;20718;-69
2021/04/07 13:13:06;;;;;;;15.60;2.47;;;;;;;;;;4975614;28;20183;-69
2021/04/07 13:15:32;;;;;;;15.57;1.87;;;;;;;;;;4981291;28;20187;-69
2021/04/07 13:17:58;;;;;;;10.77;1.63;;;;;;;;;;4981264;28;20206;-70
2021/04/07 13:20:24;;;;;;;17.10;2.70;;;;;;;;;;4972411;28;20219;-69
2021/04/07 13:22:50;;;;;;;16.17;1.77;;;;;;;;;;4986089;28;20724;-69
2021/04/07 13:25:15;;;;;;;15.73;2.40;;;;;;;;;;4981520;28;20183;-69
2021/04/07 13:27:41;;;;;;;13.83;2.07;;;;;;;;;;4982685;28;20277;-69
2021/04/07 13:30:07;;;;;;;14.57;3.10;;;;;;;;;;4971040;28;20278;-70
2021/04/07 13:32:34;;;;;;;13.97;2.40;;;;;;;;;;4981022;28;20238;-69
2021/04/07 13:35:12;;;;;;;15.10;2.20;;;;;;;;;;4978992;28;20591;-70
2021/04/07 13:37:57;;;;;;;18.10;2.67;;;;;;;;;;4982123;28;20639;-70
2021/04/07 13:42:57;;;;;;;13.27;2.20;;;;;;;;;;4984171;28;20281;-70
2021/04/07 13:45:26;;;;;;;18.57;2.90;;;;;;;;;;4973222;28;20183;-70
2021/04/07 13:47:53;;;;;;;15.70;2.00;;;;;;;;;;4983668;28;20187;-70
2021/04/07 13:50:18;;;;;;;17.63;2.43;;;;;;;;;;4988313;28;20278;-70
2021/04/07 13:52:45;;;;;;;13.73;2.30;;;;;;;;;;4973809;28;20190;-70
2021/04/07 13:55:11;;;;;;;10.50;1.80;;;;;;;;;;4984050;28;20195;-69
2021/04/07 13:57:37;;;;;;;11.33;1.83;;;;;;;;;;4979516;28;20196;-70
2021/04/07 14:00:04;;;;;;;8.63;1.47;;;;;;;;;;4985962;28;20689;-70
2021/04/07 14:02:32;;;;;;;10.37;1.23;;;;;;;;;;4970090;28;20698;-69
2021/04/07 14:04:58;;;;;;;8.03;1.43;;;;;;;;;;4983859;28;20192;-69
2021/04/07 14:07:23;;;;;;;6.83;1.30;;;;;;;;;;4972849;28;20262;-70
2021/04/07 14:09:49;;;;;;;8.30;1.63;;;;;;;;;;4636803;28;10000225;-70
2021/04/07 14:12:18;;;;;;;16.27;2.00;;;;;;;;;;4969479;28;20199;-70
2021/04/07 14:14:43;;;;;;;11.63;2.00;;;;;;;;;;4981833;28;20225;-70
2021/04/07 14:17:09;;;;;;;9.60;1.93;;;;;;;;;;4972979;28;20188;-70
2021/04/07 14:19:34;;;;;;;15.50;1.73;;;;;;;;;;4978289;28;20209;-70
2021/04/07 14:22:00;;;;;;;9.90;1.47;;;;;;;;;;4979543;28;20215;-70
2021/04/07 14:24:25;;;;;;;7.90;0.97;;;;;;;;;;4971584;28;20195;-69
2021/04/07 14:26:51;;;;;;;9.53;1.27;;;;;;;;;;4980625;28;20316;-70
2021/04/07 14:29:16;;;;;;;9.50;1.40;;;;;;;;;;4977716;28;20552;-69
2021/04/07 14:31:43;;;;;;;4.20;1.30;;;;;;;;;;4985151;28;20281;-70
2021/04/07 14:34:10;;;;;;;4.20;0.93;;;;;;;;;;4987289;28;20195;-69
2021/04/07 14:36:35;;;;;;;4.67;0.97;;;;;;;;;;4984338;28;20274;-70
2021/04/07 14:39:01;;;;;;;7.27;1.03;;;;;;;;;;4978873;28;20238;-69
2021/04/07 14:41:26;;;;;;;9.83;1.30;;;;;;;;;;4981797;28;20657;-70
2021/04/07 14:43:51;;;;;;;5.83;1.20;;;;;;;;;;4974141;28;20183;-70
2021/04/07 14:46:17;;;;;;;6.10;1.37;;;;;;;;;;4986250;28;20219;-70
2021/04/07 14:48:42;;;;;;;7.90;1.13;;;;;;;;;;4973256;28;20643;-70